Time;durP1;ratioP1;P1;durP2;ratioP2;P2;SDS_P1;SDS_P2;PMS_P1;PMS_P2;Temp;Humidity;BMP_temperature;BMP_pressure;BME280_temperature;BME280_humidity;BME280_pressure;Samples;Min_cycle;Max_cycle;Signal;HPM_P1;HPM_P2
2023/03/26 00:02:02;;;;;;;11.95;7.65;;;;;;;19.79;55.56;95969.03;10318487;28;20046;-73
2023/03/26 00:07:21;;;;;;;11.60;6.90;;;;;;;19.78;55.66;95972.88;10332116;28;20049;-73
2023/03/26 00:12:40;;;;;;;10.23;6.63;;;;;;;19.78;55.58;95982.88;10318273;28;20042;-73
2023/03/26 00:18:00;;;;;;;10.57;7.15;;;;;;;19.77;55.46;95978.63;10317947;28;20073;-73
2023/03/26 00:23:20;;;;;;;10.60;6.60;;;;;;;19.77;55.66;95987.50;10318152;28;20050;-73
2023/03/26 00:28:40;;;;;;;10.05;6.43;;;;;;;19.76;55.41;95985.97;10337590;28;20057;-73
2023/03/26 00:34:02;;;;;;;9.50;6.30;;;;;;;19.74;55.39;95975.47;10332830;28;20053;-73
2023/03/26 00:39:24;;;;;;;9.43;6.28;;;;;;;19.72;55.42;95982.38;10318134;28;20047;-73
2023/03/26 00:44:43;;;;;;;8.55;5.90;;;;;;;19.72;55.32;95987.78;10317962;28;20049;-74
2023/03/26 00:50:03;;;;;;;9.30;6.32;;;;;;;19.71;55.54;95984.25;10291107;28;20049;-74
2023/03/26 00:55:22;;;;;;;10.50;6.30;;;;;;;19.69;55.26;95981.09;10334022;28;20101;-74
2023/03/26 01:00:56;;;;;;;9.27;6.28;;;;;;;19.69;55.38;95983.00;10338461;28;20050;-74
2023/03/26 01:06:21;;;;;;;8.55;5.93;;;;;;;19.69;55.38;95977.63;10324841;28;20042;-74
2023/03/26 01:11:41;;;;;;;9.23;6.25;;;;;;;19.69;55.16;95980.31;10324863;28;20042;-74
2023/03/26 01:17:03;;;;;;;8.77;5.97;;;;;;;19.66;55.32;95978.28;10310847;28;20114;-74
2023/03/26 01:22:25;;;;;;;7.43;5.45;;;;;;;19.66;55.24;95972.88;10338017;28;20046;-73
2023/03/26 01:27:49;;;;;;;7.80;5.65;;;;;;;19.65;55.14;95968.63;10310459;28;20438;-74
2023/03/26 01:33:12;;;;;;;6.70;5.18;;;;;;;19.64;55.19;95956.22;10352118;28;20046;-73
2023/03/26 01:38:54;;;;;;;7.93;5.50;;;;;;;19.64;55.15;95942.72;10337217;28;20046;-73
2023/03/26 01:44:31;;;;;;;7.95;5.38;;;;;;;19.62;55.08;95942.28;10352148;28;20051;-79
2023/03/26 01:49:50;;;;;;;7.78;5.50;;;;;;;19.61;55.00;95933.41;10336703;28;20053;-78
2023/03/26 01:55:11;;;;;;;7.25;5.22;;;;;;;19.61;54.76;95940.72;10336565;28;20038;-78
2023/03/26 02:00:32;;;;;;;7.57;5.55;;;;;;;19.60;54.94;95948.06;10322756;28;20384;-78
2023/03/26 02:06:10;;;;;;;8.48;5.57;;;;;;;19.58;54.93;95939.47;10335616;28;20046;-78
2023/03/26 02:11:29;;;;;;;6.88;5.03;;;;;;;19.58;54.87;95941.41;10309225;28;20042;-78
2023/03/26 02:16:50;;;;;;;5.05;4.45;;;;;;;19.58;54.80;95946.81;10308872;28;20113;-78
2023/03/26 02:22:14;;;;;;;7.70;4.93;;;;;;;19.56;54.89;95939.03;10335772;28;20038;-78
2023/03/26 02:27:36;;;;;;;8.00;4.90;;;;;;;19.55;54.70;95940.97;10316536;28;20181;-78
2023/03/26 02:32:57;;;;;;;6.25;4.70;;;;;;;19.54;54.83;95942.13;10321516;28;20502;-78
2023/03/26 02:38:18;;;;;;;6.18;4.57;;;;;;;19.54;54.77;95936.72;10321606;28;20050;-78
2023/03/26 02:43:38;;;;;;;6.22;4.72;;;;;;;19.53;54.53;95932.41;10334596;28;20046;-78
2023/03/26 02:49:00;;;;;;;5.75;4.70;;;;;;;19.52;54.82;95936.28;10334729;28;20042;-78
2023/03/26 02:54:21;;;;;;;6.07;4.20;;;;;;;19.52;54.62;95940.88;10307639;28;20042;-78
2023/03/26 02:59:54;;;;;;;6.30;4.57;;;;;;;19.50;54.70;95935.84;10348954;28;20046;-78
2023/03/26 03:05:34;;;;;;;5.40;4.28;;;;;;;19.48;54.50;95943.50;10335094;28;20051;-79
2023/03/26 03:11:23;;;;;;;5.27;4.20;;;;;;;19.48;54.44;95932.69;10324187;28;20446;-78
2023/03/26 03:16:43;;;;;;;5.72;4.25;;;;;;;19.48;54.52;95935.38;10306172;28;20403;-78
2023/03/26 03:22:04;;;;;;;5.97;4.47;;;;;;;19.47;54.48;95933.03;10333276;28;20089;-78
2023/03/26 03:27:25;;;;;;;6.05;4.07;;;;;;;19.45;54.39;95932.59;10300769;28;20058;-78
2023/03/26 03:32:58;;;;;;;5.78;4.43;;;;;;;19.45;54.52;95927.19;10347675;28;20046;-78
2023/03/26 03:38:20;;;;;;;5.35;4.10;;;;;;;19.45;54.38;95946.88;10319526;28;20049;-79
2023/03/26 03:43:43;;;;;;;5.88;3.92;;;;;;;19.43;54.33;95937.53;10347756;28;20046;-73
2023/03/26 03:49:07;;;;;;;6.90;3.92;;;;;;;19.42;54.44;95933.25;10332285;28;20066;-73
2023/03/26 03:54:30;;;;;;;4.90;3.60;;;;;;;19.41;54.18;95929.78;10332737;28;20093;-74
2023/03/26 03:59:59;;;;;;;4.68;3.40;;;;;;;19.41;54.18;95932.47;10319835;28;20412;-73
2023/03/26 04:05:23;;;;;;;4.20;3.47;;;;;;;19.40;54.20;95933.59;10332604;28;20042;-74
2023/03/26 04:10:44;;;;;;;5.38;3.60;;;;;;;19.39;54.18;95925.88;10318424;28;20046;-74
2023/03/26 04:16:04;;;;;;;4.55;3.58;;;;;;;19.38;54.32;95925.06;10331964;28;20411;-73
2023/03/26 04:21:25;;;;;;;4.32;3.60;;;;;;;19.36;54.13;95925.38;10318202;28;20042;-73
2023/03/26 04:26:46;;;;;;;4.80;3.78;;;;;;;19.36;54.14;95921.91;10314525;28;20491;-73
2023/03/26 04:32:25;;;;;;;4.53;3.42;;;;;;;19.36;54.01;95925.38;10326164;28;20097;-74
2023/03/26 04:37:46;;;;;;;5.20;3.50;;;;;;;19.36;53.93;95930.00;10326349;28;20042;-73
2023/03/26 04:43:16;;;;;;;3.58;3.20;;;;;;;19.33;53.89;95918.00;10326790;28;20069;-73
2023/03/26 04:48:55;;;;;;;3.83;3.05;;;;;;;19.33;54.10;95926.09;10330728;28;20053;-73
2023/03/26 04:54:15;;;;;;;4.90;3.90;;;;;;;19.32;53.94;95921.03;10325437;28;20038;-73
2023/03/26 04:59:47;;;;;;;4.00;3.00;;;;;;;19.31;53.79;95922.19;10314918;28;20402;-73
2023/03/26 05:05:09;;;;;;;5.22;3.40;;;;;;;19.31;53.64;95927.56;10325188;28;20038;-73
2023/03/26 05:10:29;;;;;;;4.07;3.08;;;;;;;19.30;53.85;95921.38;10324919;28;20038;-74
2023/03/26 05:15:55;;;;;;;4.18;3.08;;;;;;;19.30;53.93;95936.78;10325498;28;20214;-73
2023/03/26 05:21:40;;;;;;;3.85;2.97;;;;;;;19.28;53.82;95939.06;10341787;28;20038;-74
2023/03/26 05:27:00;;;;;;;4.15;3.08;;;;;;;19.27;53.80;95932.09;10317322;28;20062;-73
2023/03/26 05:32:20;;;;;;;3.72;2.75;;;;;;;19.27;53.85;95929.41;10337547;28;20039;-74
2023/03/26 05:37:44;;;;;;;3.47;2.80;;;;;;;19.26;53.83;95922.41;10337321;28;20100;-74
2023/03/26 05:43:04;;;;;;;3.47;2.97;;;;;;;19.25;53.75;95935.13;10322741;28;20050;-73
2023/03/26 05:48:30;;;;;;;5.55;3.42;;;;;;;19.24;53.72;95932.75;10324000;28;20046;-74
2023/03/26 05:53:49;;;;;;;4.07;2.95;;;;;;;19.25;53.65;95937.03;10323174;28;20069;-73
2023/03/26 05:59:18;;;;;;;4.10;2.67;;;;;;;19.24;53.65;95927.38;10351079;28;20042;-73
2023/03/26 06:05:16;;;;;;;4.50;2.97;;;;;;;19.25;53.71;95928.94;10266423;28;20051;-73
2023/03/26 06:10:50;;;;;;;3.85;3.00;;;;;;;19.25;53.88;95927.03;10309089;28;20069;-74
2023/03/26 06:16:11;;;;;;;93.22;50.75;;;;;;;19.27;54.33;95922.06;10336038;28;20124;-74
2023/03/26 06:21:36;;;;;;;103.90;52.13;;;;;;;19.30;54.59;95923.28;10310176;28;20038;-74
2023/03/26 06:27:03;;;;;;;97.47;47.65;;;;;;;19.30;54.78;95915.97;10318385;28;20055;-74
2023/03/26 06:32:22;;;;;;;99.20;49.42;;;;;;;19.33;54.75;95912.59;10335214;28;20042;-74
2023/03/26 06:38:14;;;;;;;99.60;49.92;;;;;;;19.34;54.77;95908.75;10303258;28;20055;-74
2023/03/26 06:43:35;;;;;;;94.72;47.45;;;;;;;19.37;54.84;95891.09;10321532;28;20053;-74
2023/03/26 06:49:18;;;;;;;98.72;48.10;;;;;;;19.39;54.81;95905.03;10324251;28;20042;-74
2023/03/26 06:55:01;;;;;;;94.07;48.15;;;;;;;19.42;54.83;95907.03;10314373;28;20062;-73
2023/03/26 07:00:46;;;;;;;84.03;43.70;;;;;;;19.44;55.05;95910.16;10323882;28;20411;-73
2023/03/26 07:06:25;;;;;;;72.85;37.20;;;;;;;19.46;54.07;95902.50;10336435;28;20038;-75
2023/03/26 07:12:03;;;;;;;64.63;33.05;;;;;;;19.49;53.97;95899.13;10348484;28;20100;-73
2023/03/26 07:17:41;;;;;;;;;;;;;;;19.50;53.19;95898.00;10336765;28;20068;-73
2023/03/26 07:23:14;;;;;;;52.72;28.17;;;;;;;19.51;53.08;95899.56;10335194;28;19928;-73
2023/03/26 07:28:45;;;;;;;52.05;27.20;;;;;;;19.53;52.95;95897.31;10324957;28;20415;-73
2023/03/26 07:34:37;;;;;;;52.92;26.60;;;;;;;19.55;52.73;95892.34;10334037;28;20071;-73
2023/03/26 07:40:17;;;;;;;49.92;25.90;;;;;;;19.59;52.64;95886.25;10333020;28;20153;-73
2023/03/26 07:46:10;;;;;;;50.15;24.98;;;;;;;19.62;52.50;95872.03;10274819;28;20065;-73
2023/03/26 07:51:41;;;;;;;45.42;23.92;;;;;;;19.65;52.44;95868.66;10334676;28;20038;-73
2023/03/26 07:57:37;;;;;;;49.17;24.27;;;;;;;19.66;52.33;95865.63;10332214;28;20046;-73
2023/03/26 08:03:49;;;;;;;43.90;23.38;;;;;;;19.71;52.06;95856.44;10346389;28;20121;-73
2023/03/26 08:09:33;;;;;;;;;;;;;;;19.73;51.99;95857.69;10335005;28;20038;-74
2023/03/26 08:15:38;;;;;;;42.75;21.40;;;;;;;19.77;51.90;95846.97;10222327;29;19931;-74
2023/03/26 08:21:12;;;;;;;37.88;20.00;;;;;;;19.81;51.82;95847.84;10309643;28;20070;-73
2023/03/26 08:26:57;;;;;;;38.40;21.92;;;;;;;19.84;51.81;95843.69;10328864;28;20065;-76
2023/03/26 08:32:18;;;;;;;34.40;18.17;;;;;;;19.87;51.79;95845.69;10330384;28;20038;-74
2023/03/26 08:37:38;;;;;;;29.02;15.25;;;;;;;19.91;50.79;95831.09;10331462;28;20572;-75
2023/03/26 08:43:16;;;;;;;30.88;16.38;;;;;;;19.93;50.89;95834.28;10346267;28;20042;-75
2023/03/26 08:48:36;;;;;;;28.48;14.85;;;;;;;19.97;50.91;95823.50;10346054;28;20065;-75
2023/03/26 08:54:35;;;;;;;26.73;14.43;;;;;;;20.00;50.78;95805.84;10331582;28;20049;-75
2023/03/26 08:59:57;;;;;;;25.65;13.85;;;;;;;20.02;50.82;95785.41;10317556;28;20051;-75
2023/03/26 09:05:36;;;;;;;23.65;13.48;;;;;;;20.06;50.79;95769.28;10303924;28;20066;-75
2023/03/26 09:10:58;;;;;;;22.38;12.18;;;;;;;20.08;50.95;95754.25;10317291;28;20042;-74
2023/03/26 09:16:21;;;;;;;23.55;12.45;;;;;;;20.12;50.61;95754.34;10333299;28;20046;-74
2023/03/26 09:22:12;;;;;;;19.40;11.45;;;;;;;20.17;50.77;95750.56;10352718;28;20384;-74
2023/03/26 09:27:38;;;;;;;20.65;10.15;;;;;;;20.19;49.67;95754.50;10332136;28;20411;-72
2023/03/26 09:33:27;;;;;;;19.08;9.63;;;;;;;20.19;47.50;95749.09;10310599;28;20101;-72
2023/03/26 09:39:02;;;;;;;10.32;5.53;;;;;;;20.21;42.90;95751.44;10337477;28;20057;-72
2023/03/26 09:44:57;;;;;;;6.07;3.20;;;;;;;20.11;36.72;95758.97;10336947;28;20047;-73
2023/03/26 09:50:28;;;;;;;3.58;1.90;;;;;;;19.99;35.94;95737.44;10315949;28;20057;-72
2023/03/26 09:55:51;;;;;;;4.75;2.97;;;;;;;20.03;40.92;95737.53;10351295;28;20046;-72
2023/03/26 10:01:17;;;;;;;4.60;2.78;;;;;;;20.09;42.48;95722.59;10336528;28;20487;-72
2023/03/26 10:06:57;;;;;;;5.35;3.17;;;;;;;20.14;42.54;95715.00;10336356;28;20097;-73
2023/03/26 10:12:31;;;;;;;5.25;2.60;;;;;;;20.19;42.86;95705.03;10322393;28;20383;-73
2023/03/26 10:18:07;;;;;;;4.63;2.40;;;;;;;20.20;43.32;95704.69;10322551;28;20073;-73
2023/03/26 10:23:44;;;;;;;6.40;2.58;;;;;;;20.22;43.21;95688.13;10308616;28;20458;-72
2023/03/26 10:29:18;;;;;;;3.90;2.25;;;;;;;20.23;43.16;95682.34;10325798;28;20054;-73
2023/03/26 10:35:06;;;;;;;4.97;2.40;;;;;;;20.24;43.37;95681.19;10335617;28;20072;-72
2023/03/26 10:41:05;;;;;;;5.20;2.08;;;;;;;20.26;43.82;95662.69;10321751;28;20050;-75
2023/03/26 10:46:40;;;;;;;4.22;2.13;;;;;;;20.28;44.32;95652.31;10334624;28;20470;-77
2023/03/26 10:52:05;;;;;;;3.50;1.90;;;;;;;20.29;44.32;95645.78;10334605;28;20043;-77
2023/03/26 10:57:40;;;;;;;5.28;2.40;;;;;;;20.33;45.06;95645.84;10320932;28;20050;-76
2023/03/26 11:03:39;;;;;;;18.92;7.13;;;;;;;20.34;46.59;95642.75;10320982;28;20502;-77
2023/03/26 11:09:02;;;;;;;31.23;11.57;;;;;;;20.39;47.62;95643.63;10333997;28;20050;-77
2023/03/26 11:14:34;;;;;;;26.27;11.98;;;;;;;20.41;48.13;95641.34;10335196;28;20038;-77
2023/03/26 11:20:02;;;;;;;25.98;11.85;;;;;;;20.45;48.33;95642.19;10347976;28;20042;-76
2023/03/26 11:25:33;;;;;;;13.37;5.80;;;;;;;20.42;42.69;95626.69;10319467;28;20038;-77
2023/03/26 11:31:01;;;;;;;9.20;3.35;;;;;;;20.10;34.95;95618.72;10319698;28;20049;-78
2023/03/26 11:36:25;;;;;;;4.75;2.33;;;;;;;20.13;39.82;95618.00;10319681;28;20077;-76
2023/03/26 11:41:46;;;;;;;7.47;3.03;;;;;;;20.24;41.59;95629.81;10332249;28;20046;-77
2023/03/26 11:47:28;;;;;;;7.13;2.67;;;;;;;20.29;41.88;95613.31;10335156;28;20053;-76
2023/03/26 11:52:48;;;;;;;6.43;2.58;;;;;;;20.32;41.93;95601.75;10319646;28;20042;-80
2023/03/26 11:58:39;;;;;;;7.07;2.35;;;;;;;20.35;41.97;95603.00;10319488;28;20407;-76
2023/03/26 12:04:09;;;;;;;6.93;2.53;;;;;;;20.38;42.64;95601.47;10316917;28;20066;-77
2023/03/26 12:09:29;;;;;;;6.10;2.22;;;;;;;20.39;43.00;95597.66;10319242;28;20066;-74
2023/03/26 12:14:49;;;;;;;5.95;2.40;;;;;;;20.40;43.17;95593.78;10346651;28;20038;-76
2023/03/26 12:20:29;;;;;;;4.95;2.38;;;;;;;20.39;43.52;95593.03;10318271;28;20402;-76
2023/03/26 12:26:04;;;;;;;6.70;2.20;;;;;;;20.41;43.10;95595.38;10304542;28;20042;-76
2023/03/26 12:31:25;;;;;;;4.90;2.05;;;;;;;20.41;43.35;95592.66;10318777;28;20089;-77
2023/03/26 12:36:50;;;;;;;4.68;2.00;;;;;;;20.40;43.06;95591.09;10332252;28;20043;-77
2023/03/26 12:42:30;;;;;;;6.15;1.92;;;;;;;20.40;42.79;95580.28;10318498;28;20049;-76
2023/03/26 12:47:51;;;;;;;9.85;3.75;;;;;;;20.40;43.86;95574.84;10317575;28;20049;-76
2023/03/26 12:53:44;;;;;;;14.10;7.57;;;;;;;20.41;44.32;95565.63;10325148;28;20426;-76
2023/03/26 12:59:22;;;;;;;7.05;3.15;;;;;;;20.38;40.96;95572.50;10325464;28;20046;-77
2023/03/26 13:05:01;;;;;;;8.85;3.20;;;;;;;20.37;43.19;95575.59;10325140;28;20076;-76
2023/03/26 13:10:25;;;;;;;7.25;3.00;;;;;;;20.38;43.53;95571.72;10324585;28;20042;-75
2023/03/26 13:15:51;;;;;;;7.88;2.95;;;;;;;20.36;43.68;95569.38;10324918;28;20039;-77
2023/03/26 13:21:22;;;;;;;9.25;3.20;;;;;;;20.36;43.68;95569.38;10295449;28;20192;-77
2023/03/26 13:26:59;;;;;;;8.82;2.88;;;;;;;20.38;43.58;95566.31;10338820;28;20054;-76
2023/03/26 13:32:26;;;;;;;6.25;2.67;;;;;;;20.37;43.98;95559.38;10323864;28;20046;-76
2023/03/26 13:37:55;;;;;;;7.78;2.95;;;;;;;20.35;43.93;95562.41;10338742;28;20101;-76
2023/03/26 13:43:35;;;;;;;8.88;3.20;;;;;;;20.35;44.37;95559.72;10323839;28;20491;-75
2023/03/26 13:49:15;;;;;;;8.70;3.10;;;;;;;20.35;44.79;95555.09;10351376;28;20050;-75
2023/03/26 13:54:46;;;;;;;7.70;3.17;;;;;;;20.34;44.98;95550.81;10336900;28;20093;-75
2023/03/26 14:00:31;;;;;;;8.20;2.95;;;;;;;20.34;45.28;95539.97;10336840;28;20422;-74
2023/03/26 14:05:54;;;;;;;8.48;3.00;;;;;;;20.34;45.26;95542.69;10337387;28;20050;-77
2023/03/26 14:11:22;;;;;;;7.78;3.15;;;;;;;20.34;45.13;95539.19;10322582;28;20043;-76
2023/03/26 14:16:50;;;;;;;10.10;2.75;;;;;;;20.33;45.41;95537.66;10336135;28;20046;-77
2023/03/26 14:22:17;;;;;;;7.13;3.08;;;;;;;20.32;45.23;95531.44;10322376;28;20050;-77
2023/03/26 14:27:43;;;;;;;9.45;3.05;;;;;;;20.33;45.51;95527.63;10329842;28;20062;-74
2023/03/26 14:33:26;;;;;;;7.93;3.13;;;;;;;20.32;45.74;95526.03;10322265;28;20038;-73
2023/03/26 14:39:12;;;;;;;7.85;2.53;;;;;;;20.31;46.02;95516.38;10322109;28;20046;-75
2023/03/26 14:44:43;;;;;;;6.55;2.80;;;;;;;20.30;46.17;95516.72;10335068;28;20097;-76
2023/03/26 14:50:19;;;;;;;5.78;2.42;;;;;;;20.29;46.53;95499.72;10321397;28;20093;-73
2023/03/26 14:55:42;;;;;;;6.47;2.80;;;;;;;20.30;46.75;95506.69;10349093;28;20039;-73
2023/03/26 15:01:24;;;;;;;6.60;2.78;;;;;;;20.30;47.03;95512.09;10306845;28;20458;-73
2023/03/26 15:07:20;;;;;;;8.70;2.47;;;;;;;20.30;47.46;95492.38;10334143;28;20046;-74
2023/03/26 15:13:10;;;;;;;8.18;2.88;;;;;;;20.30;47.38;95495.88;10333005;28;20046;-74
2023/03/26 15:18:58;;;;;;;5.03;2.45;;;;;;;20.28;47.56;95478.44;10320002;28;20046;-74
2023/03/26 15:24:23;;;;;;;4.90;2.30;;;;;;;20.27;47.45;95474.97;10348050;28;20491;-73
2023/03/26 15:30:14;;;;;;;4.88;2.33;;;;;;;20.28;47.70;95473.03;10321454;28;20062;-73
2023/03/26 15:36:09;;;;;;;4.13;2.22;;;;;;;20.28;47.59;95475.75;10333037;28;20395;-74
2023/03/26 15:41:45;;;;;;;4.95;2.10;;;;;;;20.25;47.58;95463.72;10276178;28;20065;-74
2023/03/26 15:47:36;;;;;;;5.20;2.20;;;;;;;20.25;47.73;95452.91;10347461;28;20042;-74
2023/03/26 15:53:11;;;;;;;4.75;2.10;;;;;;;20.24;47.77;95442.44;10332549;28;20046;-73
2023/03/26 15:58:51;;;;;;;9.05;2.22;;;;;;;20.24;47.80;95445.94;10318470;28;20050;-73
2023/03/26 16:04:37;;;;;;;3.83;2.03;;;;;;;20.24;47.85;95442.44;10332074;28;20049;-73
2023/03/26 16:10:39;;;;;;;5.57;2.03;;;;;;;20.22;47.95;95434.69;10318535;28;20395;-73
2023/03/26 16:16:02;;;;;;;5.80;1.90;;;;;;;20.22;47.83;95439.34;10244797;28;20065;-73
2023/03/26 16:21:33;;;;;;;3.70;1.85;;;;;;;20.21;47.93;95433.16;10318228;28;20263;-74
2023/03/26 16:27:01;;;;;;;4.35;1.90;;;;;;;20.21;48.05;95435.84;10338688;28;20054;-73
2023/03/26 16:32:28;;;;;;;8.13;2.00;;;;;;;20.20;48.05;95420.75;10340027;28;20046;-74
2023/03/26 16:37:49;;;;;;;4.43;1.80;;;;;;;20.19;48.22;95430.03;10339809;28;20046;-74
2023/03/26 16:43:38;;;;;;;5.05;1.90;;;;;;;20.19;48.92;95427.31;10353897;28;20454;-74
2023/03/26 16:49:00;;;;;;;3.58;1.80;;;;;;;20.18;49.29;95417.63;10312100;28;20042;-74
2023/03/26 16:54:22;;;;;;;3.88;1.85;;;;;;;20.20;49.32;95409.16;10339038;28;20049;-73
2023/03/26 17:00:15;;;;;;;3.28;1.73;;;;;;;20.19;49.33;95419.22;10353688;28;20110;-73
2023/03/26 17:05:52;;;;;;;4.03;2.00;;;;;;;20.18;49.21;95406.81;10319429;28;20525;-73
2023/03/26 17:11:30;;;;;;;3.35;1.70;;;;;;;20.18;49.25;95416.88;10353152;28;20042;-73
2023/03/26 17:17:36;;;;;;;4.77;1.70;;;;;;;20.15;49.29;95418.38;10338822;28;20527;-74
2023/03/26 17:23:19;;;;;;;6.88;2.08;;;;;;;20.12;48.77;95413.69;10324886;28;20498;-74
2023/03/26 17:29:00;;;;;;;4.95;1.80;;;;;;;20.10;48.78;95416.72;10313024;28;20411;-74
2023/03/26 17:34:38;;;;;;;6.70;1.98;;;;;;;20.11;48.78;95428.31;10337855;28;20038;-73
2023/03/26 17:40:05;;;;;;;5.85;1.77;;;;;;;20.09;48.69;95436.00;10351519;28;20053;-73
2023/03/26 17:45:29;;;;;;;5.82;2.05;;;;;;;20.08;48.76;95429.06;10337492;28;20042;-73
2023/03/26 17:51:02;;;;;;;2.20;1.38;;;;;;;20.08;48.90;95429.06;10337299;28;20089;-73
2023/03/26 17:56:26;;;;;;;4.78;1.80;;;;;;;20.06;48.47;95428.63;10323987;28;20046;-74
2023/03/26 18:01:47;;;;;;;2.88;1.70;;;;;;;20.06;48.55;95436.75;10323350;28;20053;-74
2023/03/26 18:07:31;;;;;;;8.80;2.17;;;;;;;20.03;48.92;95419.34;10336437;28;20046;-74
2023/03/26 18:12:58;;;;;;;7.72;1.92;;;;;;;20.05;49.98;95418.94;10351796;28;20048;-74
2023/03/26 18:18:32;;;;;;;6.03;2.00;;;;;;;20.05;49.97;95418.94;10323071;28;20484;-74
2023/03/26 18:23:53;;;;;;;6.03;2.20;;;;;;;20.05;49.98;95432.47;10337243;28;20049;-74
2023/03/26 18:29:24;;;;;;;6.93;1.90;;;;;;;20.04;50.33;95433.63;10312251;28;20058;-74
2023/03/26 18:34:48;;;;;;;6.07;1.70;;;;;;;20.03;49.97;95423.94;10350274;28;20038;-74
2023/03/26 18:40:23;;;;;;;4.65;1.88;;;;;;;20.03;50.24;95432.06;10336072;28;20050;-73
2023/03/26 18:45:43;;;;;;;4.07;1.60;;;;;;;20.02;49.95;95415.06;10321879;28;20046;-74
2023/03/26 18:51:05;;;;;;;5.50;1.92;;;;;;;20.01;50.17;95415.41;10321325;28;20047;-74
2023/03/26 18:56:27;;;;;;;5.53;1.88;;;;;;;19.99;50.28;95407.66;10336063;28;20046;-74
2023/03/26 19:01:47;;;;;;;8.00;1.88;;;;;;;19.99;50.31;95404.19;10321216;28;20045;-73
2023/03/26 19:07:10;;;;;;;4.22;1.80;;;;;;;19.98;50.48;95381.00;10334735;28;20042;-74
2023/03/26 19:12:32;;;;;;;5.25;1.92;;;;;;;19.98;50.46;95381.78;10334341;28;20050;-75
2023/03/26 19:17:55;;;;;;;5.07;1.55;;;;;;;19.98;50.48;95375.59;10306764;28;20062;-74
2023/03/26 19:23:20;;;;;;;6.75;2.17;;;;;;;19.97;50.47;95374.81;10320155;28;20126;-74
2023/03/26 19:28:49;;;;;;;3.88;1.73;;;;;;;19.98;50.48;95370.19;10325374;28;20054;-74
2023/03/26 19:34:16;;;;;;;3.08;1.55;;;;;;;19.93;50.16;95361.25;10333874;28;20042;-74
2023/03/26 19:39:44;;;;;;;3.75;1.35;;;;;;;19.93;50.28;95361.25;10348318;28;20046;-74
2023/03/26 19:45:05;;;;;;;5.72;1.60;;;;;;;19.92;50.22;95356.19;10319986;28;20046;-74
2023/03/26 19:50:30;;;;;;;2.58;1.42;;;;;;;19.92;50.30;95356.19;10319932;28;20066;-74
2023/03/26 19:56:06;;;;;;;3.45;2.03;;;;;;;19.91;50.34;95349.22;10333299;28;20125;-74
2023/03/26 20:01:28;;;;;;;2.80;1.60;;;;;;;19.90;50.46;95351.16;10316278;28;20057;-74
2023/03/26 20:06:48;;;;;;;4.53;1.73;;;;;;;19.90;50.51;95359.25;10332782;28;20050;-74
2023/03/26 20:12:08;;;;;;;2.50;1.50;;;;;;;19.89;50.52;95360.38;10319595;28;20053;-74
2023/03/26 20:17:33;;;;;;;3.65;1.45;;;;;;;19.89;50.35;95356.91;10320427;28;20054;-74
2023/03/26 20:22:53;;;;;;;3.90;1.60;;;;;;;19.88;50.25;95356.13;10332798;28;20062;-74
2023/03/26 20:28:13;;;;;;;3.20;1.60;;;;;;;19.86;50.25;95336.03;10325055;28;20121;-74
2023/03/26 20:33:33;;;;;;;4.05;1.30;;;;;;;19.85;50.27;95329.81;10305444;28;20108;-74
2023/03/26 20:38:53;;;;;;;3.33;1.55;;;;;;;19.86;50.39;95338.72;10332178;28;20046;-74
2023/03/26 20:44:14;;;;;;;4.70;1.55;;;;;;;19.85;50.25;95329.03;10318543;28;20450;-73
2023/03/26 20:49:34;;;;;;;5.07;1.73;;;;;;;19.83;50.22;95334.81;10332010;28;20058;-73
2023/03/26 20:54:53;;;;;;;6.28;1.90;;;;;;;19.83;49.94;95331.34;10331704;28;20046;-73
2023/03/26 21:00:17;;;;;;;5.13;2.50;;;;;;;19.81;50.39;95325.50;10331866;28;20458;-76
2023/03/26 21:05:39;;;;;;;9.40;2.88;;;;;;;19.81;50.20;95328.97;10331504;28;20042;-73
2023/03/26 21:11:02;;;;;;;7.35;2.42;;;;;;;19.78;50.18;95320.81;10333908;28;20042;-73
2023/03/26 21:16:22;;;;;;;9.95;2.95;;;;;;;19.78;50.06;95318.13;10339178;28;20038;-73
2023/03/26 21:22:25;;;;;;;8.32;3.65;;;;;;;19.77;50.19;95319.28;10338777;28;20081;-73
2023/03/26 21:28:16;;;;;;;10.38;3.33;;;;;;;19.75;50.15;95323.09;10334248;28;20051;-73
2023/03/26 21:33:37;;;;;;;10.98;3.70;;;;;;;19.75;50.12;95317.69;10352845;28;20042;-73
2023/03/26 21:38:57;;;;;;;10.80;3.58;;;;;;;19.74;50.18;95312.69;10324590;28;20046;-73
2023/03/26 21:44:18;;;;;;;8.38;3.20;;;;;;;19.73;50.02;95311.88;10324142;28;20058;-73
2023/03/26 21:49:37;;;;;;;10.32;3.05;;;;;;;19.71;50.17;95292.53;10337561;28;20427;-73
2023/03/26 21:54:59;;;;;;;7.80;2.95;;;;;;;19.71;49.96;95286.34;10337259;28;20050;-73
2023/03/26 22:00:22;;;;;;;10.65;3.47;;;;;;;19.70;50.05;95263.94;10323913;28;20461;-73
2023/03/26 22:06:02;;;;;;;7.75;3.35;;;;;;;19.68;50.13;95251.94;10336722;28;20046;-73
2023/03/26 22:11:21;;;;;;;9.38;3.95;;;;;;;19.68;49.96;95236.50;10336731;28;20046;-73
2023/03/26 22:16:41;;;;;;;11.02;3.67;;;;;;;19.66;50.36;95228.00;10336304;28;20042;-73
2023/03/26 22:22:01;;;;;;;7.78;3.35;;;;;;;19.67;50.54;95234.94;10321870;28;20047;-73
2023/03/26 22:27:20;;;;;;;7.70;3.15;;;;;;;19.66;50.67;95230.69;10345680;28;20050;-73
2023/03/26 22:32:40;;;;;;;8.18;3.40;;;;;;;19.66;50.71;95241.50;10335618;28;20042;-73
2023/03/26 22:38:00;;;;;;;5.97;2.80;;;;;;;19.67;50.61;95261.19;10321766;28;20046;-73
2023/03/26 22:43:19;;;;;;;5.80;2.67;;;;;;;19.66;50.54;95265.81;10321615;28;20038;-73
2023/03/26 22:48:39;;;;;;;5.95;2.67;;;;;;;19.67;50.60;95277.41;10321218;28;20046;-73
2023/03/26 22:53:59;;;;;;;5.03;2.47;;;;;;;19.67;50.55;95282.81;10295234;28;20050;-73
2023/03/26 22:59:18;;;;;;;5.40;2.70;;;;;;;19.67;50.57;95282.81;10334507;28;20117;-73
2023/03/26 23:04:37;;;;;;;6.13;2.63;;;;;;;19.67;50.55;95293.59;10334424;28;20419;-73
2023/03/26 23:09:57;;;;;;;4.93;2.38;;;;;;;19.67;50.48;95296.31;10348759;28;20043;-73
2023/03/26 23:15:16;;;;;;;4.63;2.40;;;;;;;19.66;50.53;95298.25;10349327;28;20046;-73
2023/03/26 23:20:38;;;;;;;3.95;2.15;;;;;;;19.66;50.35;95306.34;10320521;28;20490;-73
2023/03/26 23:26:03;;;;;;;4.95;2.30;;;;;;;19.65;50.37;95309.41;10320374;28;20053;-73
2023/03/26 23:31:24;;;;;;;5.25;2.28;;;;;;;19.66;50.23;95317.16;10333326;28;20050;-73
2023/03/26 23:36:45;;;;;;;3.58;2.22;;;;;;;19.64;50.33;95307.81;10319094;28;20073;-72
2023/03/26 23:42:04;;;;;;;4.68;2.33;;;;;;;19.65;50.26;95317.50;10319316;28;20049;-73
2023/03/26 23:47:23;;;;;;;5.00;2.55;;;;;;;19.64;50.22;95305.13;10318764;28;20046;-73
2023/03/26 23:52:44;;;;;;;4.32;2.33;;;;;;;19.64;50.12;95297.00;10319009;28;20395;-73
2023/03/26 23:58:04;;;;;;;4.00;2.15;;;;;;;19.63;50.14;95303.56;10318977;28;20038;-73
